ベロオリゾンテ の空港の天気 - METARとTAF

タンクレド・ネヴェス国際空港 ( SBCF / CNF ) - ブラジル ミナスジェライス州ベロオリゾンテ
飛行場実況気象(Metar)
観測時間01/23 02:00 BRST (01/23 04:00 UTC)
風向・風速東南東 3m/s
視程10km以上
天気現象
なし
気温22℃
湿度69%
気圧1016hPa
METARSBCF 230400Z 12006KT CAVOK 22/16 Q1016
過去の天気等 Google飛行場航空写真 Wunderground天気予報

過去48時間のMETAR

飛行場予報(TAF)
発表時間: 1/22 20:00 BRST (1/22 22:00 UTC)
予報対象時間: 22日22時 BRST ~ 23日22時 BRST
風向・風速南東 4m/s
視程10km以上
なし
23日10時 BRST から
風向・風速北東 5m/s
視程10km以上
全天の4割程度の雲 雲底高度 1,070m
23日15時 BRST ~ 23日19時 BRST に一時的に
風向・風速南東 6m/s
天気現象周辺で雷 周辺でしゅう雨
全天の4割程度の雲 雲底高度 1,070m
少しの積乱雲 雲底高度 1,220m
23日20時 BRST から
風向・風速東 5m/s
視程10km以上
なし
TAF SBCF 222200Z 2300/2324 13008KT CAVOK TN19/2308Z TX30/2317Z
FM231200 04010KT 9999 SCT035
TEMPO 2317/2321 13012KT VCTS VCSH SCT035 FEW040CB
FM232200 09009KT CAVOK RMK PDF